createdAt,value
2023-10-01T00:00:39.330Z,101432.94
2023-10-01T00:03:10.236Z,101436.38
2023-10-01T00:05:41.110Z,101449.09
2023-10-01T00:08:12.019Z,101444.09
2023-10-01T00:10:42.354Z,101453.56
2023-10-01T00:13:10.627Z,101454.44
2023-10-01T00:15:39.387Z,101455.94
2023-10-01T00:18:09.113Z,101451.94
2023-10-01T00:20:37.401Z,101444.47
2023-10-01T00:23:07.039Z,101447.75
2023-10-01T00:25:37.228Z,101443.38
2023-10-01T00:28:09.344Z,101441.59
2023-10-01T00:30:37.858Z,101443.69
2023-10-01T00:33:08.116Z,101438.31
2023-10-01T00:35:41.417Z,101443.91
2023-10-01T00:38:10.163Z,101436.66
2023-10-01T00:40:38.586Z,101434.69
2023-10-01T00:43:07.517Z,101436.78
2023-10-01T00:45:35.783Z,101442.69
2023-10-01T00:48:07.727Z,101445.50
2023-10-01T00:50:39.722Z,101440.41
2023-10-01T00:53:10.512Z,101440.38
2023-10-01T00:55:38.855Z,101445.22
2023-10-01T00:58:07.112Z,101435.81
2023-10-01T01:00:35.814Z,101430.47
2023-10-01T01:03:09.819Z,101433.47
2023-10-01T01:05:42.625Z,101437.88
2023-10-01T01:08:22.679Z,101434.81
2023-10-01T01:10:53.496Z,101435.69
2023-10-01T01:13:26.222Z,101432.94
2023-10-01T01:15:54.934Z,101432.59
2023-10-01T01:18:24.220Z,101424.63
2023-10-01T01:21:00.197Z,101427.22
2023-10-01T01:23:33.186Z,101418.44
2023-10-01T01:26:02.191Z,101411.69
2023-10-01T01:28:33.463Z,101411.06
2023-10-01T01:31:03.529Z,101412.09
2023-10-01T01:33:34.768Z,101418.03
2023-10-01T01:36:06.087Z,101416.56
2023-10-01T01:38:38.648Z,101412.25
2023-10-01T01:41:13.433Z,101410.28
2023-10-01T01:43:41.458Z,101405.91
2023-10-01T01:46:12.842Z,101405.00
2023-10-01T01:48:42.281Z,101406.63
2023-10-01T01:51:11.360Z,101400.91
2023-10-01T01:53:43.001Z,101401.84
2023-10-01T01:56:13.135Z,101404.72
2023-10-01T01:58:44.807Z,101403.22
2023-10-01T02:01:25.198Z,101403.22
2023-10-01T02:03:55.100Z,101404.44
2023-10-01T02:06:29.274Z,101411.69
2023-10-01T02:09:00.780Z,101410.84
2023-10-01T02:11:34.066Z,101402.59
2023-10-01T02:14:04.985Z,101403.47
2023-10-01T02:16:41.729Z,101408.81
2023-10-01T02:19:20.256Z,101401.19
2023-10-01T02:21:54.987Z,101402.75
2023-10-01T02:24:38.937Z,101410.44
2023-10-01T02:27:10.781Z,101399.03
2023-10-01T02:29:47.505Z,101397.94
2023-10-01T02:32:16.015Z,101393.59
2023-10-01T02:34:44.722Z,101385.66
2023-10-01T02:37:16.815Z,101391.75
2023-10-01T02:39:46.249Z,101391.91
2023-10-01T02:42:23.032Z,101391.84
2023-10-01T02:44:55.456Z,101398.81
2023-10-01T02:47:26.018Z,101390.13
2023-10-01T02:50:00.272Z,101401.75
2023-10-01T02:52:38.929Z,101394.31
2023-10-01T02:55:19.288Z,101398.75
2023-10-01T02:57:51.711Z,101396.28
2023-10-01T03:00:21.982Z,101386.75
2023-10-01T03:02:55.343Z,101378.19
2023-10-01T03:05:30.833Z,101380.41
2023-10-01T03:08:04.849Z,101380.81
2023-10-01T03:10:39.075Z,101372.59
2023-10-01T03:13:16.347Z,101369.53
2023-10-01T03:15:45.747Z,101368.53
2023-10-01T03:18:35.692Z,101360.56
2023-10-01T03:21:19.451Z,101355.75
2023-10-01T03:23:54.456Z,101351.03
2023-10-01T03:26:27.012Z,101347.63
2023-10-01T03:29:12.663Z,101350.22
2023-10-01T03:31:44.337Z,101365.41
2023-10-01T03:34:29.766Z,101367.34
2023-10-01T03:37:01.566Z,101371.41
2023-10-01T03:39:29.751Z,101372.06
2023-10-01T03:42:12.101Z,101369.56
2023-10-01T03:44:57.060Z,101374.34
2023-10-01T03:47:25.412Z,101368.13
2023-10-01T03:49:55.687Z,101376.63
2023-10-01T03:52:22.955Z,101382.13
2023-10-01T03:55:01.223Z,101380.69
2023-10-01T03:57:31.586Z,101387.41
2023-10-01T04:00:20.865Z,101384.66
2023-10-01T04:02:48.974Z,101393.53
2023-10-01T04:05:32.409Z,101394.56
2023-10-01T04:08:02.877Z,101394.63
2023-10-01T04:10:32.042Z,101396.31
2023-10-01T04:13:13.148Z,101401.69
2023-10-01T04:15:47.314Z,101400.47
2023-10-01T04:18:22.724Z,101400.63
2023-10-01T04:21:12.239Z,101398.00
2023-10-01T04:23:49.846Z,101389.31
2023-10-01T04:26:19.788Z,101390.31
2023-10-01T04:28:52.012Z,101390.56
2023-10-01T04:31:41.588Z,101381.88
2023-10-01T04:34:12.336Z,101381.78
2023-10-01T04:36:40.879Z,101382.53
2023-10-01T04:39:10.354Z,101387.91
2023-10-01T04:41:39.065Z,101382.75
2023-10-01T04:44:08.596Z,101387.81
2023-10-01T04:46:39.034Z,101385.13
2023-10-01T04:49:36.155Z,101396.41
2023-10-01T04:52:12.008Z,101392.91
2023-10-01T04:54:45.911Z,101396.31
2023-10-01T04:57:14.328Z,101396.16
2023-10-01T04:59:59.060Z,101403.84
2023-10-01T05:02:31.425Z,101400.38
2023-10-01T05:05:11.191Z,101405.69
2023-10-01T05:07:40.308Z,101404.50
2023-10-01T05:10:11.000Z,101414.75
2023-10-01T05:12:44.646Z,101414.69
2023-10-01T05:15:23.126Z,101408.56
2023-10-01T05:17:51.825Z,101421.56
2023-10-01T05:20:20.670Z,101415.78
2023-10-01T05:22:55.244Z,101425.22
2023-10-01T05:25:26.256Z,101427.56
2023-10-01T05:27:55.935Z,101418.84
2023-10-01T05:30:36.196Z,101421.25
2023-10-01T05:33:07.291Z,101429.81
2023-10-01T05:35:42.089Z,101431.78
2023-10-01T05:38:11.881Z,101432.59
2023-10-01T05:40:41.666Z,101427.41
2023-10-01T05:43:16.043Z,101426.84
2023-10-01T05:45:52.430Z,101433.25
2023-10-01T05:48:21.738Z,101437.78
2023-10-01T05:50:50.257Z,101447.38
2023-10-01T05:53:20.096Z,101439.50
2023-10-01T05:55:48.657Z,101442.84
2023-10-01T05:58:17.728Z,101445.44
2023-10-01T06:00:58.066Z,101451.25
2023-10-01T06:03:28.007Z,101452.88
2023-10-01T06:06:00.308Z,101449.09
2023-10-01T06:08:33.792Z,101453.28
2023-10-01T06:11:07.361Z,101454.91
2023-10-01T06:13:40.166Z,101456.59
2023-10-01T06:16:17.028Z,101458.16
2023-10-01T06:18:56.831Z,101454.44
2023-10-01T06:21:26.719Z,101451.56
2023-10-01T06:23:59.714Z,101448.63
2023-10-01T06:26:34.894Z,101443.06
2023-10-01T06:29:03.947Z,101432.53
2023-10-01T06:31:50.561Z,101449.56
2023-10-01T06:34:22.802Z,101445.91
2023-10-01T06:36:52.688Z,101445.66
2023-10-01T06:39:22.216Z,101446.38
2023-10-01T06:41:51.138Z,101443.47
2023-10-01T06:44:20.683Z,101436.28
2023-10-01T06:46:52.224Z,101434.16
2023-10-01T06:49:21.082Z,101436.66
2023-10-01T06:51:51.971Z,101440.00
2023-10-01T06:54:20.106Z,101430.22
2023-10-01T06:56:49.046Z,101439.56
2023-10-01T06:59:18.838Z,101436.63
2023-10-01T07:01:57.932Z,101439.91
2023-10-01T07:04:33.254Z,101441.50
2023-10-01T07:07:21.342Z,101448.19
2023-10-01T07:09:50.898Z,101447.03
2023-10-01T07:12:19.424Z,101439.81
2023-10-01T07:14:52.296Z,101436.78
2023-10-01T07:17:25.069Z,101434.53
2023-10-01T07:20:20.311Z,101428.13
2023-10-01T07:22:50.558Z,101430.38
2023-10-01T07:25:39.617Z,101435.22
2023-10-01T07:28:13.490Z,101437.66
2023-10-01T07:30:52.623Z,101429.63
2023-10-01T07:33:22.187Z,101431.88
2023-10-01T07:36:02.193Z,101434.16
2023-10-01T07:38:32.033Z,101423.25
2023-10-01T07:41:00.275Z,101429.56
2023-10-01T07:43:29.374Z,101429.16
2023-10-01T07:46:00.300Z,101424.34
2023-10-01T07:48:29.636Z,101423.09
2023-10-01T07:51:04.734Z,101421.56
2023-10-01T07:53:35.064Z,101410.59
2023-10-01T07:56:03.994Z,101418.75
2023-10-01T07:58:52.440Z,101416.81
2023-10-01T08:01:40.171Z,101409.16
2023-10-01T08:04:10.094Z,101406.34
2023-10-01T08:06:44.791Z,101409.53
2023-10-01T08:09:14.708Z,101412.13
2023-10-01T08:12:06.357Z,101416.63
2023-10-01T08:14:35.521Z,101413.31
2023-10-01T08:17:04.506Z,101407.56
2023-10-01T08:19:45.609Z,101411.31
2023-10-01T08:22:17.030Z,101410.81
2023-10-01T08:24:50.576Z,101412.50
2023-10-01T08:27:31.104Z,101405.25
2023-10-01T08:30:18.242Z,101404.03
2023-10-01T08:32:51.130Z,101404.25
2023-10-01T08:35:24.532Z,101403.00
2023-10-01T08:38:01.680Z,101401.63
2023-10-01T08:40:36.447Z,101394.00
2023-10-01T08:43:07.939Z,101390.03
2023-10-01T08:45:40.654Z,101388.56
2023-10-01T08:48:10.421Z,101380.25
2023-10-01T08:50:41.572Z,101382.81
2023-10-01T08:53:14.918Z,101386.69
2023-10-01T08:56:05.855Z,101371.81
2023-10-01T08:58:49.734Z,101378.75
2023-10-01T09:01:21.644Z,101368.03
2023-10-01T09:03:57.057Z,101365.84
2023-10-01T09:06:32.355Z,101373.97
2023-10-01T09:09:21.221Z,101375.72
2023-10-01T09:11:51.991Z,101375.16
2023-10-01T09:14:38.551Z,101366.03
2023-10-01T09:17:26.623Z,101358.50
2023-10-01T09:19:55.961Z,101354.84
2023-10-01T09:22:41.649Z,101365.72
2023-10-01T09:25:26.213Z,101369.13
2023-10-01T09:28:01.038Z,101360.09
2023-10-01T09:30:33.701Z,101363.59
2023-10-01T09:33:06.446Z,101373.16
2023-10-01T09:35:51.297Z,101364.28
2023-10-01T09:38:21.219Z,101361.72
2023-10-01T09:40:53.040Z,101356.09
2023-10-01T09:43:26.168Z,101344.31
2023-10-01T09:45:56.012Z,101331.22
2023-10-01T09:48:31.600Z,101329.31
2023-10-01T09:51:09.344Z,101328.84
2023-10-01T09:53:49.381Z,101346.50
2023-10-01T09:56:30.995Z,101343.41
2023-10-01T09:59:03.611Z,101346.31
2023-10-01T10:01:33.392Z,101342.91
2023-10-01T10:04:04.524Z,101343.19
2023-10-01T10:06:34.042Z,101332.06
2023-10-01T10:09:07.858Z,101333.66
2023-10-01T10:11:46.746Z,101326.75
2023-10-01T10:14:46.444Z,101322.66
2023-10-01T10:17:21.136Z,101312.91
2023-10-01T10:20:23.684Z,101304.50
2023-10-01T10:23:23.088Z,101309.88
2023-10-01T10:25:51.314Z,101303.09
2023-10-01T10:28:27.600Z,101303.00
2023-10-01T10:31:32.733Z,101305.81
2023-10-01T10:34:26.378Z,101299.75
2023-10-01T10:36:59.474Z,101294.59
2023-10-01T10:40:04.059Z,101293.47
2023-10-01T10:42:34.446Z,101289.72
2023-10-01T10:45:24.741Z,101292.91
2023-10-01T10:48:01.245Z,101285.59
2023-10-01T10:51:22.984Z,101271.34
2023-10-01T10:53:53.284Z,101267.09
2023-10-01T10:56:36.437Z,101250.06
2023-10-01T10:59:05.474Z,101251.44
2023-10-01T11:01:45.795Z,101244.72
2023-10-01T11:04:16.768Z,101240.06
2023-10-01T11:06:45.463Z,101236.66
2023-10-01T11:09:26.339Z,101242.91
2023-10-01T11:12:03.334Z,101244.34
2023-10-01T11:14:32.089Z,101236.63
2023-10-01T11:17:01.889Z,101236.84
2023-10-01T11:19:36.825Z,101246.75
2023-10-01T11:22:07.723Z,101244.25
2023-10-01T11:24:38.416Z,101226.53
2023-10-01T11:27:16.253Z,101212.31
2023-10-01T11:29:45.410Z,101213.91
2023-10-01T11:32:18.077Z,101218.69
2023-10-01T11:34:52.848Z,101206.69
2023-10-01T11:37:21.337Z,101198.25
2023-10-01T11:39:53.704Z,101195.28
2023-10-01T11:42:30.072Z,101194.97
2023-10-01T11:44:58.330Z,101187.78
2023-10-01T11:47:35.577Z,101180.06
2023-10-01T11:50:09.410Z,101184.00
2023-10-01T11:52:41.177Z,101182.25
2023-10-01T11:55:20.859Z,101171.00
2023-10-01T11:57:53.680Z,101169.13
2023-10-01T12:00:41.455Z,101159.50
2023-10-01T12:03:12.456Z,101149.63
2023-10-01T12:05:43.128Z,101151.97
2023-10-01T12:08:19.265Z,101143.69
2023-10-01T12:10:52.215Z,101139.16
2023-10-01T12:13:24.948Z,101141.16
2023-10-01T12:15:53.451Z,101139.63
2023-10-01T12:18:35.311Z,101146.19
2023-10-01T12:21:23.345Z,101143.41
2023-10-01T12:23:51.149Z,101133.91
2023-10-01T12:26:32.872Z,101136.56
2023-10-01T12:29:16.775Z,101144.19
2023-10-01T12:31:45.906Z,101141.41
2023-10-01T12:34:15.463Z,101135.84
2023-10-01T12:36:47.157Z,101131.41
2023-10-01T12:39:28.295Z,101133.38
2023-10-01T12:41:59.223Z,101127.78
2023-10-01T12:44:29.935Z,101132.78
2023-10-01T12:47:02.002Z,101131.69
2023-10-01T12:49:34.599Z,101114.81
2023-10-01T12:52:02.826Z,101120.56
2023-10-01T12:54:29.861Z,101122.09
2023-10-01T12:57:10.987Z,101115.25
2023-10-01T13:00:19.785Z,101100.53
2023-10-01T13:02:50.277Z,101102.09
2023-10-01T13:05:21.268Z,101091.72
2023-10-01T13:07:51.757Z,101082.28
2023-10-01T13:10:20.852Z,101078.38
2023-10-01T13:12:57.477Z,101082.72
2023-10-01T13:15:32.631Z,101088.75
2023-10-01T13:18:02.371Z,101092.47
2023-10-01T13:20:42.634Z,101076.28
2023-10-01T13:23:10.855Z,101082.88
2023-10-01T13:25:40.683Z,101075.44
2023-10-01T13:28:09.307Z,101070.41
2023-10-01T13:33:54.676Z,101065.22
2023-10-01T13:36:36.787Z,101060.03
2023-10-01T13:39:16.740Z,101058.31
2023-10-01T13:42:01.909Z,101060.59
2023-10-01T13:44:47.247Z,101054.44
2023-10-01T13:47:32.735Z,101062.22
2023-10-01T13:50:33.996Z,101064.94
2023-10-01T13:53:19.729Z,101057.38
2023-10-01T13:56:06.081Z,101066.34
2023-10-01T13:58:52.220Z,101068.69
2023-10-01T14:01:38.521Z,101057.78
2023-10-01T14:04:24.492Z,101059.97
2023-10-01T14:07:11.326Z,101057.63
2023-10-01T14:09:53.882Z,101047.13
2023-10-01T14:12:37.476Z,101042.38
2023-10-01T14:15:22.950Z,101056.06
2023-10-01T14:17:57.951Z,101050.59
2023-10-01T14:20:49.693Z,101040.53
2023-10-01T14:23:33.737Z,101039.53
2023-10-01T14:26:17.684Z,101037.97
2023-10-01T14:29:00.141Z,101032.25
2023-10-01T14:31:51.978Z,101027.09
2023-10-01T14:34:28.146Z,101028.88
2023-10-01T14:37:07.240Z,101038.81
2023-10-01T14:39:54.167Z,101033.94
2023-10-01T14:42:39.729Z,101042.75
2023-10-01T14:45:17.311Z,101039.25
2023-10-01T14:47:59.781Z,101045.34
2023-10-01T14:50:42.480Z,101031.09
2023-10-01T14:53:17.452Z,101029.38
2023-10-01T14:56:00.110Z,101031.69
2023-10-01T14:58:34.236Z,101032.81
2023-10-01T15:01:11.293Z,101029.84
2023-10-01T15:03:47.143Z,101033.63
2023-10-01T15:06:22.992Z,101031.53
2023-10-01T15:09:03.656Z,101032.50
2023-10-01T15:11:41.863Z,101029.50
2023-10-01T15:14:24.117Z,101038.94
2023-10-01T15:17:09.014Z,101032.59
2023-10-01T15:19:55.283Z,101028.13
2023-10-01T15:22:37.801Z,101037.81
2023-10-01T15:25:16.029Z,101034.00
2023-10-01T15:27:54.775Z,101039.84
2023-10-01T15:30:32.565Z,101026.03
2023-10-01T15:33:03.634Z,101033.50
2023-10-01T15:35:32.704Z,101038.72
2023-10-01T15:38:02.303Z,101033.16
2023-10-01T15:40:31.442Z,101038.66
2023-10-01T15:43:02.448Z,101040.19
2023-10-01T15:45:32.555Z,101032.44
2023-10-01T15:48:08.867Z,101037.16
2023-10-01T15:50:40.891Z,101033.47
2023-10-01T15:53:19.250Z,101029.53
2023-10-01T15:55:58.201Z,101033.66
2023-10-01T15:58:28.774Z,101039.53
2023-10-01T16:00:56.532Z,101041.69
2023-10-01T16:03:31.438Z,101042.41
2023-10-01T16:06:10.870Z,101046.91
2023-10-01T16:08:50.042Z,101040.16
2023-10-01T16:11:37.356Z,101044.03
2023-10-01T16:14:18.015Z,101040.09
2023-10-01T16:17:00.419Z,101040.72
2023-10-01T16:19:38.185Z,101039.97
2023-10-01T16:22:16.341Z,101045.63
2023-10-01T16:24:46.564Z,101044.09
2023-10-01T16:27:29.029Z,101044.56
2023-10-01T16:30:25.728Z,101045.06
2023-10-01T16:32:58.730Z,101051.06
2023-10-01T16:35:29.862Z,101051.75
2023-10-01T16:37:59.461Z,101055.63
2023-10-01T16:40:29.515Z,101052.00
2023-10-01T16:43:01.292Z,101061.50
2023-10-01T16:45:32.592Z,101056.91
2023-10-01T16:48:08.461Z,101062.81
2023-10-01T16:50:57.988Z,101063.38
2023-10-01T16:53:32.551Z,101058.31
2023-10-01T16:56:14.329Z,101061.38
2023-10-01T16:58:44.177Z,101062.50
2023-10-01T17:01:16.303Z,101066.72
2023-10-01T17:03:55.471Z,101071.19
2023-10-01T17:06:26.139Z,101075.59
2023-10-01T17:08:57.636Z,101069.59
2023-10-01T17:11:28.909Z,101070.44
2023-10-01T17:14:11.284Z,101078.16
2023-10-01T17:16:42.561Z,101081.69
2023-10-01T17:19:11.119Z,101082.44
2023-10-01T17:21:45.643Z,101079.56
2023-10-01T17:24:15.560Z,101076.28
2023-10-01T17:26:51.777Z,101076.94
2023-10-01T17:29:27.383Z,101082.22
2023-10-01T17:31:59.315Z,101082.00
2023-10-01T17:34:31.952Z,101089.97
2023-10-01T17:37:04.542Z,101091.53
2023-10-01T17:39:34.087Z,101092.69
2023-10-01T17:42:05.243Z,101090.34
2023-10-01T17:44:40.160Z,101088.75
2023-10-01T17:47:12.863Z,101096.97
2023-10-01T17:49:47.422Z,101094.53
2023-10-01T17:52:29.724Z,101088.41
2023-10-01T17:55:02.224Z,101094.63
2023-10-01T17:57:38.108Z,101091.34
2023-10-01T18:00:36.783Z,101091.66
2023-10-01T18:03:11.047Z,101097.34
2023-10-01T18:05:43.944Z,101092.72
2023-10-01T18:08:12.921Z,101092.78
2023-10-01T18:10:43.237Z,101099.41
2023-10-01T18:13:16.614Z,101097.06
2023-10-01T18:15:52.083Z,101100.28
2023-10-01T18:18:27.607Z,101103.03
2023-10-01T18:21:06.151Z,101088.16
2023-10-01T18:23:44.559Z,101101.44
2023-10-01T18:26:20.611Z,101097.31
2023-10-01T18:28:49.531Z,101094.03
2023-10-01T18:31:19.407Z,101095.63
2023-10-01T18:33:55.574Z,101093.47
2023-10-01T18:36:29.987Z,101094.88
2023-10-01T18:39:01.202Z,101091.28
2023-10-01T18:41:36.551Z,101099.00
2023-10-01T18:44:15.442Z,101101.81
2023-10-01T18:46:48.711Z,101101.94
2023-10-01T18:49:27.232Z,101106.06
2023-10-01T18:52:03.175Z,101107.97
2023-10-01T18:54:35.957Z,101112.59
2023-10-01T18:57:07.440Z,101108.25
2023-10-01T18:59:38.333Z,101104.00
2023-10-01T19:02:12.725Z,101108.44
2023-10-01T19:04:44.601Z,101106.63
2023-10-01T19:07:17.189Z,101100.91
2023-10-01T19:09:50.316Z,101100.16
2023-10-01T19:12:24.863Z,101106.34
2023-10-01T19:15:11.167Z,101106.34
2023-10-01T19:17:50.790Z,101105.41
2023-10-01T19:23:57.978Z,101100.72
2023-10-01T19:26:32.101Z,101102.88
2023-10-01T19:29:05.142Z,101103.91
2023-10-01T19:31:40.478Z,101108.63
2023-10-01T19:34:12.737Z,101110.78
2023-10-01T19:36:59.556Z,101101.19
2023-10-01T19:39:42.114Z,101104.75
2023-10-01T19:42:49.127Z,101109.38
2023-10-01T19:45:23.743Z,101115.75
2023-10-01T19:47:52.067Z,101107.97
2023-10-01T19:50:37.106Z,101114.56
2023-10-01T19:53:45.394Z,101116.06
2023-10-01T19:56:16.157Z,101108.50
2023-10-01T19:58:49.291Z,101114.31
2023-10-01T20:01:18.948Z,101111.25
2023-10-01T20:03:48.014Z,101112.41
2023-10-01T20:06:21.896Z,101111.94
2023-10-01T20:08:57.019Z,101110.00
2023-10-01T20:11:26.481Z,101110.53
2023-10-01T20:13:55.159Z,101107.28
2023-10-01T20:16:24.826Z,101109.59
2023-10-01T20:18:56.336Z,101105.00
2023-10-01T20:21:28.808Z,101103.41
2023-10-01T20:23:59.558Z,101103.84
2023-10-01T20:26:33.428Z,101103.09
2023-10-01T20:29:01.687Z,101114.06
2023-10-01T20:31:29.631Z,101117.78
2023-10-01T20:33:57.533Z,101124.47
2023-10-01T20:36:27.259Z,101118.47
2023-10-01T20:38:56.515Z,101115.41
2023-10-01T20:41:26.650Z,101114.69
2023-10-01T20:43:56.948Z,101113.88
2023-10-01T20:46:25.879Z,101118.44
2023-10-01T20:49:00.845Z,101114.19
2023-10-01T20:51:38.101Z,101115.97
2023-10-01T20:54:08.085Z,101110.16
2023-10-01T20:56:38.217Z,101109.47
2023-10-01T20:59:14.250Z,101105.53
2023-10-01T21:01:49.512Z,101096.13
2023-10-01T21:04:26.223Z,101097.84
2023-10-01T21:07:02.926Z,101098.63
2023-10-01T21:09:38.498Z,101097.09
2023-10-01T21:12:13.795Z,101103.88
2023-10-01T21:14:47.818Z,101096.56
2023-10-01T21:17:23.330Z,101101.28
2023-10-01T21:19:54.408Z,101107.16
2023-10-01T21:22:30.205Z,101101.34
2023-10-01T21:24:59.646Z,101110.41
2023-10-01T21:27:29.245Z,101098.09
2023-10-01T21:29:57.750Z,101105.03
2023-10-01T21:32:25.711Z,101091.38
2023-10-01T21:34:55.754Z,101097.41
2023-10-01T21:37:25.692Z,101089.44
2023-10-01T21:39:58.457Z,101088.63
2023-10-01T21:42:33.410Z,101083.38
2023-10-01T21:45:21.009Z,101075.66
2023-10-01T21:47:50.070Z,101074.28
2023-10-01T21:50:17.861Z,101075.84
2023-10-01T21:52:45.813Z,101081.94
2023-10-01T21:55:14.064Z,101083.13
2023-10-01T21:57:44.225Z,101082.00
2023-10-01T22:00:33.773Z,101076.22
2023-10-01T22:03:08.379Z,101080.88
2023-10-01T22:05:38.462Z,101077.97
2023-10-01T22:08:10.441Z,101074.56
2023-10-01T22:10:40.431Z,101079.75
2023-10-01T22:13:12.546Z,101077.88
2023-10-01T22:15:40.320Z,101082.81
2023-10-01T22:18:23.592Z,101082.97
2023-10-01T22:20:53.564Z,101085.06
2023-10-01T22:23:29.882Z,101077.22
2023-10-01T22:26:01.469Z,101077.44
2023-10-01T22:28:34.772Z,101075.78
2023-10-01T22:31:06.925Z,101069.09
2023-10-01T22:33:38.635Z,101074.56
2023-10-01T22:36:10.326Z,101080.34
2023-10-01T22:38:38.285Z,101077.88
2023-10-01T22:41:09.022Z,101078.97
2023-10-01T22:43:39.073Z,101072.94
2023-10-01T22:46:08.829Z,101073.88
2023-10-01T22:48:47.922Z,101070.41
2023-10-01T22:51:24.685Z,101073.03
2023-10-01T22:54:00.871Z,101069.72
2023-10-01T22:56:29.834Z,101075.16
2023-10-01T22:59:06.309Z,101071.38
2023-10-01T23:01:35.687Z,101069.22
2023-10-01T23:04:11.649Z,101075.03
2023-10-01T23:06:43.992Z,101074.63
2023-10-01T23:09:19.676Z,101070.31
2023-10-01T23:11:49.060Z,101074.59
2023-10-01T23:14:21.781Z,101077.78
2023-10-01T23:16:52.094Z,101079.28
2023-10-01T23:19:37.461Z,101069.66
2023-10-01T23:22:11.668Z,101069.06
2023-10-01T23:24:53.168Z,101076.19
2023-10-01T23:27:24.611Z,101064.38
2023-10-01T23:29:54.888Z,101070.75
2023-10-01T23:32:26.288Z,101073.22
2023-10-01T23:34:54.554Z,101073.59
2023-10-01T23:37:38.991Z,101069.84
2023-10-01T23:40:12.396Z,101068.75
2023-10-01T23:42:46.813Z,101069.19
2023-10-01T23:45:17.559Z,101060.50
2023-10-01T23:47:46.298Z,101065.78
2023-10-01T23:50:40.065Z,101060.75
2023-10-01T23:53:08.336Z,101060.00
2023-10-01T23:55:36.535Z,101065.56
2023-10-01T23:58:23.699Z,101061.75
